sensor_id;sensor_type;location;lat;lon;timestamp;P1;durP1;ratioP1;P2;durP2;ratioP2
25980;SDS011;13772;52.996;9.124;2022-07-10T08:38:35;10.68;;;2.00;;
25980;SDS011;13772;52.996;9.124;2022-07-10T08:41:00;8.57;;;2.17;;
25980;SDS011;13772;52.996;9.124;2022-07-10T08:43:27;11.25;;;1.83;;
25980;SDS011;13772;52.996;9.124;2022-07-10T08:45:53;6.18;;;1.80;;
25980;SDS011;13772;52.996;9.124;2022-07-10T08:48:22;9.88;;;2.08;;
25980;SDS011;13772;52.996;9.124;2022-07-10T08:50:48;9.18;;;2.03;;
25980;SDS011;13772;52.996;9.124;2022-07-10T08:53:18;10.98;;;1.77;;
25980;SDS011;13772;52.996;9.124;2022-07-10T08:55:47;15.52;;;2.03;;
25980;SDS011;13772;52.996;9.124;2022-07-10T08:58:12;11.82;;;1.60;;
25980;SDS011;13772;52.996;9.124;2022-07-10T09:00:38;11.57;;;2.08;;
25980;SDS011;13772;52.996;9.124;2022-07-10T09:03:04;8.77;;;1.90;;
25980;SDS011;13772;52.996;9.124;2022-07-10T09:05:29;8.70;;;1.60;;
25980;SDS011;13772;52.996;9.124;2022-07-10T09:07:54;14.65;;;2.38;;
25980;SDS011;13772;52.996;9.124;2022-07-10T09:10:23;11.13;;;1.70;;
25980;SDS011;13772;52.996;9.124;2022-07-10T09:12:53;10.35;;;2.00;;
25980;SDS011;13772;52.996;9.124;2022-07-10T09:15:19;12.77;;;1.95;;
25980;SDS011;13772;52.996;9.124;2022-07-10T09:17:57;12.10;;;2.28;;
25980;SDS011;13772;52.996;9.124;2022-07-10T09:20:33;8.80;;;1.98;;
25980;SDS011;13772;52.996;9.124;2022-07-10T09:22:59;8.23;;;1.77;;
25980;SDS011;13772;52.996;9.124;2022-07-10T09:25:32;9.73;;;2.10;;
25980;SDS011;13772;52.996;9.124;2022-07-10T09:27:58;7.70;;;1.55;;
25980;SDS011;13772;52.996;9.124;2022-07-10T09:30:34;7.70;;;1.75;;
25980;SDS011;13772;52.996;9.124;2022-07-10T09:41:21;7.72;;;1.30;;
25980;SDS011;13772;52.996;9.124;2022-07-10T09:43:51;12.75;;;1.83;;
25980;SDS011;13772;52.996;9.124;2022-07-10T09:46:17;6.70;;;1.75;;
25980;SDS011;13772;52.996;9.124;2022-07-10T09:48:42;6.00;;;1.45;;
25980;SDS011;13772;52.996;9.124;2022-07-10T09:51:08;8.68;;;1.60;;
25980;SDS011;13772;52.996;9.124;2022-07-10T09:53:38;5.50;;;1.30;;
25980;SDS011;13772;52.996;9.124;2022-07-10T09:56:05;8.20;;;2.00;;
25980;SDS011;13772;52.996;9.124;2022-07-10T09:58:31;9.75;;;2.17;;
25980;SDS011;13772;52.996;9.124;2022-07-10T10:00:57;6.72;;;1.27;;
25980;SDS011;13772;52.996;9.124;2022-07-10T10:03:23;11.85;;;1.50;;
25980;SDS011;13772;52.996;9.124;2022-07-10T10:05:53;9.52;;;1.98;;
25980;SDS011;13772;52.996;9.124;2022-07-10T10:08:25;9.02;;;2.10;;
25980;SDS011;13772;52.996;9.124;2022-07-10T10:10:51;10.02;;;1.67;;
25980;SDS011;13772;52.996;9.124;2022-07-10T10:13:20;5.68;;;1.25;;
25980;SDS011;13772;52.996;9.124;2022-07-10T10:18:11;9.23;;;1.80;;
25980;SDS011;13772;52.996;9.124;2022-07-10T10:20:37;9.00;;;2.00;;
25980;SDS011;13772;52.996;9.124;2022-07-10T10:23:03;8.63;;;1.35;;
25980;SDS011;13772;52.996;9.124;2022-07-10T10:25:28;4.85;;;1.50;;
25980;SDS011;13772;52.996;9.124;2022-07-10T10:27:56;6.30;;;1.67;;
25980;SDS011;13772;52.996;9.124;2022-07-10T10:30:22;8.07;;;1.70;;
25980;SDS011;13772;52.996;9.124;2022-07-10T10:32:47;5.55;;;1.13;;
25980;SDS011;13772;52.996;9.124;2022-07-10T10:35:40;10.35;;;1.80;;
25980;SDS011;13772;52.996;9.124;2022-07-10T10:37:58;8.20;;;1.52;;
25980;SDS011;13772;52.996;9.124;2022-07-10T10:40:30;9.45;;;1.70;;
25980;SDS011;13772;52.996;9.124;2022-07-10T10:42:56;8.07;;;1.55;;
25980;SDS011;13772;52.996;9.124;2022-07-10T10:45:41;10.20;;;1.83;;
25980;SDS011;13772;52.996;9.124;2022-07-10T10:48:08;11.77;;;1.92;;
25980;SDS011;13772;52.996;9.124;2022-07-10T10:50:46;8.98;;;2.20;;
25980;SDS011;13772;52.996;9.124;2022-07-10T10:53:16;10.77;;;1.83;;
25980;SDS011;13772;52.996;9.124;2022-07-10T10:56:20;9.95;;;1.85;;
25980;SDS011;13772;52.996;9.124;2022-07-10T10:58:27;9.63;;;1.80;;
25980;SDS011;13772;52.996;9.124;2022-07-10T11:01:02;7.75;;;1.90;;
25980;SDS011;13772;52.996;9.124;2022-07-10T11:03:27;10.35;;;2.10;;
25980;SDS011;13772;52.996;9.124;2022-07-10T11:05:52;9.82;;;1.75;;
25980;SDS011;13772;52.996;9.124;2022-07-10T11:11:36;4.43;;;1.50;;
25980;SDS011;13772;52.996;9.124;2022-07-10T11:14:03;6.82;;;1.63;;
25980;SDS011;13772;52.996;9.124;2022-07-10T11:16:28;6.32;;;1.48;;
25980;SDS011;13772;52.996;9.124;2022-07-10T11:18:57;5.03;;;1.13;;
25980;SDS011;13772;52.996;9.124;2022-07-10T11:21:23;7.68;;;2.45;;
25980;SDS011;13772;52.996;9.124;2022-07-10T11:26:30;11.57;;;3.95;;
25980;SDS011;13772;52.996;9.124;2022-07-10T11:29:01;7.80;;;3.30;;
25980;SDS011;13772;52.996;9.124;2022-07-10T11:31:27;6.97;;;2.50;;
25980;SDS011;13772;52.996;9.124;2022-07-10T11:33:54;8.10;;;3.03;;
25980;SDS011;13772;52.996;9.124;2022-07-10T11:36:20;6.47;;;2.50;;
25980;SDS011;13772;52.996;9.124;2022-07-10T11:38:56;7.20;;;3.05;;
25980;SDS011;13772;52.996;9.124;2022-07-10T11:41:23;6.85;;;2.40;;
25980;SDS011;13772;52.996;9.124;2022-07-10T11:43:49;14.98;;;5.28;;
25980;SDS011;13772;52.996;9.124;2022-07-10T11:46:14;15.45;;;4.57;;
25980;SDS011;13772;52.996;9.124;2022-07-10T11:48:40;11.38;;;4.38;;
25980;SDS011;13772;52.996;9.124;2022-07-10T11:51:18;14.13;;;5.32;;
25980;SDS011;13772;52.996;9.124;2022-07-10T11:53:52;22.17;;;12.20;;
25980;SDS011;13772;52.996;9.124;2022-07-10T11:56:18;25.48;;;12.68;;
25980;SDS011;13772;52.996;9.124;2022-07-10T11:58:43;20.33;;;8.32;;
25980;SDS011;13772;52.996;9.124;2022-07-10T12:01:09;27.02;;;11.85;;
25980;SDS011;13772;52.996;9.124;2022-07-10T12:03:39;14.02;;;4.38;;
25980;SDS011;13772;52.996;9.124;2022-07-10T12:06:05;21.02;;;9.02;;
25980;SDS011;13772;52.996;9.124;2022-07-10T12:08:41;7.90;;;1.88;;
25980;SDS011;13772;52.996;9.124;2022-07-10T12:11:10;5.82;;;1.65;;
25980;SDS011;13772;52.996;9.124;2022-07-10T12:16:01;9.47;;;2.03;;
25980;SDS011;13772;52.996;9.124;2022-07-10T12:18:26;11.18;;;2.00;;
25980;SDS011;13772;52.996;9.124;2022-07-10T12:20:53;7.72;;;1.58;;
25980;SDS011;13772;52.996;9.124;2022-07-10T12:23:19;11.68;;;1.73;;
25980;SDS011;13772;52.996;9.124;2022-07-10T12:25:45;6.75;;;1.75;;
25980;SDS011;13772;52.996;9.124;2022-07-10T12:28:12;9.88;;;1.70;;
25980;SDS011;13772;52.996;9.124;2022-07-10T12:30:43;6.10;;;1.30;;
25980;SDS011;13772;52.996;9.124;2022-07-10T12:33:10;9.32;;;2.47;;
25980;SDS011;13772;52.996;9.124;2022-07-10T12:38:33;9.15;;;3.40;;
25980;SDS011;13772;52.996;9.124;2022-07-10T12:41:06;13.90;;;4.13;;
25980;SDS011;13772;52.996;9.124;2022-07-10T12:43:31;11.50;;;3.80;;
25980;SDS011;13772;52.996;9.124;2022-07-10T12:48:38;7.97;;;2.60;;
25980;SDS011;13772;52.996;9.124;2022-07-10T12:51:24;7.45;;;1.85;;
25980;SDS011;13772;52.996;9.124;2022-07-10T12:53:50;5.22;;;1.77;;
25980;SDS011;13772;52.996;9.124;2022-07-10T12:56:34;7.18;;;1.65;;
25980;SDS011;13772;52.996;9.124;2022-07-10T12:59:00;6.88;;;1.00;;
25980;SDS011;13772;52.996;9.124;2022-07-10T13:01:26;5.53;;;1.10;;
25980;SDS011;13772;52.996;9.124;2022-07-10T13:03:57;4.10;;;1.00;;
25980;SDS011;13772;52.996;9.124;2022-07-10T13:06:28;5.50;;;1.17;;
25980;SDS011;13772;52.996;9.124;2022-07-10T13:08:53;4.93;;;1.10;;
25980;SDS011;13772;52.996;9.124;2022-07-10T13:11:19;6.80;;;1.15;;
25980;SDS011;13772;52.996;9.124;2022-07-10T13:13:44;4.60;;;0.90;;
25980;SDS011;13772;52.996;9.124;2022-07-10T13:16:09;4.60;;;0.98;;
25980;SDS011;13772;52.996;9.124;2022-07-10T13:18:35;6.07;;;1.13;;
25980;SDS011;13772;52.996;9.124;2022-07-10T13:21:00;3.28;;;0.80;;
25980;SDS011;13772;52.996;9.124;2022-07-10T13:23:28;3.28;;;0.80;;
25980;SDS011;13772;52.996;9.124;2022-07-10T13:25:53;6.32;;;1.02;;
25980;SDS011;13772;52.996;9.124;2022-07-10T13:28:19;4.45;;;1.05;;
25980;SDS011;13772;52.996;9.124;2022-07-10T13:30:45;3.83;;;1.02;;
25980;SDS011;13772;52.996;9.124;2022-07-10T13:33:10;7.63;;;1.20;;
25980;SDS011;13772;52.996;9.124;2022-07-10T13:35:35;4.88;;;1.20;;
25980;SDS011;13772;52.996;9.124;2022-07-10T13:38:01;5.65;;;0.82;;
25980;SDS011;13772;52.996;9.124;2022-07-10T13:40:28;3.33;;;1.00;;
25980;SDS011;13772;52.996;9.124;2022-07-10T13:42:53;5.28;;;0.70;;
25980;SDS011;13772;52.996;9.124;2022-07-10T13:45:20;2.85;;;0.50;;
25980;SDS011;13772;52.996;9.124;2022-07-10T13:47:45;5.32;;;0.65;;
25980;SDS011;13772;52.996;9.124;2022-07-10T13:50:11;3.58;;;0.50;;
25980;SDS011;13772;52.996;9.124;2022-07-10T13:52:36;3.50;;;0.70;;
25980;SDS011;13772;52.996;9.124;2022-07-10T13:55:01;3.88;;;0.70;;
25980;SDS011;13772;52.996;9.124;2022-07-10T13:57:29;3.33;;;0.80;;
25980;SDS011;13772;52.996;9.124;2022-07-10T13:59:54;2.72;;;0.73;;
25980;SDS011;13772;52.996;9.124;2022-07-10T14:02:19;4.65;;;1.02;;
25980;SDS011;13772;52.996;9.124;2022-07-10T14:04:45;3.90;;;1.00;;
25980;SDS011;13772;52.996;9.124;2022-07-10T14:07:10;2.80;;;0.82;;
25980;SDS011;13772;52.996;9.124;2022-07-10T14:09:35;3.60;;;0.68;;
25980;SDS011;13772;52.996;9.124;2022-07-10T14:12:01;3.53;;;0.82;;
25980;SDS011;13772;52.996;9.124;2022-07-10T14:14:26;6.05;;;1.17;;
25980;SDS011;13772;52.996;9.124;2022-07-10T14:16:51;4.55;;;0.90;;
25980;SDS011;13772;52.996;9.124;2022-07-10T14:19:17;4.57;;;1.08;;
25980;SDS011;13772;52.996;9.124;2022-07-10T14:21:42;4.88;;;1.13;;
25980;SDS011;13772;52.996;9.124;2022-07-10T14:24:07;3.75;;;0.73;;
25980;SDS011;13772;52.996;9.124;2022-07-10T14:26:33;5.53;;;0.90;;
25980;SDS011;13772;52.996;9.124;2022-07-10T14:29:01;4.28;;;0.90;;
25980;SDS011;13772;52.996;9.124;2022-07-10T14:31:27;4.15;;;0.90;;
25980;SDS011;13772;52.996;9.124;2022-07-10T14:33:52;7.20;;;0.90;;
25980;SDS011;13772;52.996;9.124;2022-07-10T14:36:17;4.93;;;0.93;;
25980;SDS011;13772;52.996;9.124;2022-07-10T14:38:43;5.75;;;1.00;;
25980;SDS011;13772;52.996;9.124;2022-07-10T14:41:09;7.18;;;1.10;;
25980;SDS011;13772;52.996;9.124;2022-07-10T14:43:34;6.03;;;1.00;;
25980;SDS011;13772;52.996;9.124;2022-07-10T14:46:00;3.78;;;0.98;;
25980;SDS011;13772;52.996;9.124;2022-07-10T14:48:29;6.38;;;1.30;;
25980;SDS011;13772;52.996;9.124;2022-07-10T14:50:55;4.90;;;0.88;;
25980;SDS011;13772;52.996;9.124;2022-07-10T14:53:22;4.85;;;0.98;;
25980;SDS011;13772;52.996;9.124;2022-07-10T14:55:48;5.55;;;1.10;;
25980;SDS011;13772;52.996;9.124;2022-07-10T14:58:13;6.05;;;1.10;;
25980;SDS011;13772;52.996;9.124;2022-07-10T15:00:38;7.22;;;1.30;;
25980;SDS011;13772;52.996;9.124;2022-07-10T15:03:04;5.90;;;1.15;;
25980;SDS011;13772;52.996;9.124;2022-07-10T15:05:29;4.10;;;1.00;;
25980;SDS011;13772;52.996;9.124;2022-07-10T15:07:54;3.08;;;0.90;;
25980;SDS011;13772;52.996;9.124;2022-07-10T15:10:19;4.68;;;1.00;;
25980;SDS011;13772;52.996;9.124;2022-07-10T15:12:45;7.63;;;1.20;;
25980;SDS011;13772;52.996;9.124;2022-07-10T15:15:11;3.17;;;0.80;;
25980;SDS011;13772;52.996;9.124;2022-07-10T15:17:36;6.93;;;0.90;;
25980;SDS011;13772;52.996;9.124;2022-07-10T15:20:05;5.20;;;1.13;;
25980;SDS011;13772;52.996;9.124;2022-07-10T15:22:30;5.18;;;1.13;;
25980;SDS011;13772;52.996;9.124;2022-07-10T15:24:57;7.65;;;1.05;;
25980;SDS011;13772;52.996;9.124;2022-07-10T15:27:23;10.93;;;1.60;;
25980;SDS011;13772;52.996;9.124;2022-07-10T15:29:48;5.20;;;1.23;;
25980;SDS011;13772;52.996;9.124;2022-07-10T15:32:14;6.25;;;1.20;;
25980;SDS011;13772;52.996;9.124;2022-07-10T15:34:39;4.88;;;0.88;;
25980;SDS011;13772;52.996;9.124;2022-07-10T15:37:04;5.43;;;1.00;;
25980;SDS011;13772;52.996;9.124;2022-07-10T15:39:30;5.55;;;1.20;;
25980;SDS011;13772;52.996;9.124;2022-07-10T15:42:06;5.30;;;0.90;;
25980;SDS011;13772;52.996;9.124;2022-07-10T15:44:32;5.40;;;1.33;;
25980;SDS011;13772;52.996;9.124;2022-07-10T15:46:57;8.90;;;0.93;;
25980;SDS011;13772;52.996;9.124;2022-07-10T15:49:22;4.07;;;1.08;;
25980;SDS011;13772;52.996;9.124;2022-07-10T15:51:48;5.75;;;1.17;;
25980;SDS011;13772;52.996;9.124;2022-07-10T15:54:15;4.03;;;1.25;;
25980;SDS011;13772;52.996;9.124;2022-07-10T15:56:40;6.53;;;0.95;;
25980;SDS011;13772;52.996;9.124;2022-07-10T15:59:05;5.68;;;1.02;;
25980;SDS011;13772;52.996;9.124;2022-07-10T16:01:30;5.00;;;0.90;;
25980;SDS011;13772;52.996;9.124;2022-07-10T16:03:56;4.78;;;0.90;;
25980;SDS011;13772;52.996;9.124;2022-07-10T16:06:21;3.00;;;0.90;;
25980;SDS011;13772;52.996;9.124;2022-07-10T16:08:47;6.28;;;1.02;;
25980;SDS011;13772;52.996;9.124;2022-07-10T16:11:12;6.10;;;1.05;;
25980;SDS011;13772;52.996;9.124;2022-07-10T16:13:37;5.72;;;1.00;;
25980;SDS011;13772;52.996;9.124;2022-07-10T16:16:03;3.42;;;0.93;;
25980;SDS011;13772;52.996;9.124;2022-07-10T16:18:28;4.68;;;0.60;;
25980;SDS011;13772;52.996;9.124;2022-07-10T16:20:54;4.85;;;0.65;;
25980;SDS011;13772;52.996;9.124;2022-07-10T16:23:19;3.63;;;0.75;;
25980;SDS011;13772;52.996;9.124;2022-07-10T16:25:45;3.22;;;0.60;;
25980;SDS011;13772;52.996;9.124;2022-07-10T16:28:22;6.13;;;0.68;;
25980;SDS011;13772;52.996;9.124;2022-07-10T16:30:48;3.05;;;0.70;;
25980;SDS011;13772;52.996;9.124;2022-07-10T16:33:14;3.53;;;0.57;;
25980;SDS011;13772;52.996;9.124;2022-07-10T16:35:39;5.85;;;0.82;;
25980;SDS011;13772;52.996;9.124;2022-07-10T16:38:05;2.60;;;0.60;;
25980;SDS011;13772;52.996;9.124;2022-07-10T16:40:30;5.50;;;1.25;;
25980;SDS011;13772;52.996;9.124;2022-07-10T16:42:55;5.90;;;0.65;;
25980;SDS011;13772;52.996;9.124;2022-07-10T16:45:20;2.10;;;0.50;;
25980;SDS011;13772;52.996;9.124;2022-07-10T16:47:46;2.22;;;0.70;;
25980;SDS011;13772;52.996;9.124;2022-07-10T16:50:11;3.58;;;0.63;;
25980;SDS011;13772;52.996;9.124;2022-07-10T16:52:36;4.00;;;0.93;;
25980;SDS011;13772;52.996;9.124;2022-07-10T16:55:07;4.43;;;0.65;;
25980;SDS011;13772;52.996;9.124;2022-07-10T16:57:32;4.20;;;0.85;;
25980;SDS011;13772;52.996;9.124;2022-07-10T16:59:58;3.83;;;0.90;;
25980;SDS011;13772;52.996;9.124;2022-07-10T17:02:23;3.63;;;0.50;;
25980;SDS011;13772;52.996;9.124;2022-07-10T17:04:48;2.08;;;0.50;;
25980;SDS011;13772;52.996;9.124;2022-07-10T17:07:14;8.52;;;0.82;;
25980;SDS011;13772;52.996;9.124;2022-07-10T17:09:39;2.53;;;0.55;;
25980;SDS011;13772;52.996;9.124;2022-07-10T17:12:05;3.28;;;0.40;;
25980;SDS011;13772;52.996;9.124;2022-07-10T17:14:30;4.25;;;0.60;;
25980;SDS011;13772;52.996;9.124;2022-07-10T17:16:56;3.47;;;0.77;;
25980;SDS011;13772;52.996;9.124;2022-07-10T17:19:23;2.58;;;0.50;;
25980;SDS011;13772;52.996;9.124;2022-07-10T17:21:48;3.28;;;0.68;;
25980;SDS011;13772;52.996;9.124;2022-07-10T17:24:16;4.05;;;0.70;;
25980;SDS011;13772;52.996;9.124;2022-07-10T17:26:41;3.05;;;0.70;;
25980;SDS011;13772;52.996;9.124;2022-07-10T17:29:07;3.90;;;0.68;;
25980;SDS011;13772;52.996;9.124;2022-07-10T17:31:32;5.43;;;0.90;;
25980;SDS011;13772;52.996;9.124;2022-07-10T17:33:57;3.95;;;0.68;;
25980;SDS011;13772;52.996;9.124;2022-07-10T17:36:23;5.63;;;0.70;;
25980;SDS011;13772;52.996;9.124;2022-07-10T17:38:48;3.47;;;0.50;;
25980;SDS011;13772;52.996;9.124;2022-07-10T17:41:15;3.05;;;0.60;;
25980;SDS011;13772;52.996;9.124;2022-07-10T17:43:41;2.58;;;0.50;;
25980;SDS011;13772;52.996;9.124;2022-07-10T17:46:06;5.20;;;0.80;;
25980;SDS011;13772;52.996;9.124;2022-07-10T17:48:31;2.95;;;0.40;;
25980;SDS011;13772;52.996;9.124;2022-07-10T17:50:56;2.72;;;0.70;;
25980;SDS011;13772;52.996;9.124;2022-07-10T17:53:22;3.10;;;0.85;;
25980;SDS011;13772;52.996;9.124;2022-07-10T17:55:47;4.05;;;0.60;;
25980;SDS011;13772;52.996;9.124;2022-07-10T17:58:12;2.63;;;0.50;;
25980;SDS011;13772;52.996;9.124;2022-07-10T18:00:38;2.67;;;0.60;;
25980;SDS011;13772;52.996;9.124;2022-07-10T18:03:03;4.63;;;0.70;;
25980;SDS011;13772;52.996;9.124;2022-07-10T18:05:29;3.78;;;0.63;;
25980;SDS011;13772;52.996;9.124;2022-07-10T18:07:54;4.85;;;0.80;;
25980;SDS011;13772;52.996;9.124;2022-07-10T18:10:19;4.38;;;0.70;;
25980;SDS011;13772;52.996;9.124;2022-07-10T18:12:45;4.10;;;0.90;;
25980;SDS011;13772;52.996;9.124;2022-07-10T18:15:10;3.53;;;0.60;;
25980;SDS011;13772;52.996;9.124;2022-07-10T18:17:35;3.13;;;0.70;;
25980;SDS011;13772;52.996;9.124;2022-07-10T18:20:01;3.65;;;0.40;;
25980;SDS011;13772;52.996;9.124;2022-07-10T18:22:26;2.83;;;0.40;;
25980;SDS011;13772;52.996;9.124;2022-07-10T18:24:52;3.08;;;0.57;;
25980;SDS011;13772;52.996;9.124;2022-07-10T18:27:17;3.03;;;0.70;;
25980;SDS011;13772;52.996;9.124;2022-07-10T18:29:43;4.53;;;0.57;;
25980;SDS011;13772;52.996;9.124;2022-07-10T18:32:11;3.42;;;0.68;;
25980;SDS011;13772;52.996;9.124;2022-07-10T18:34:37;3.35;;;0.60;;
25980;SDS011;13772;52.996;9.124;2022-07-10T18:37:05;4.90;;;0.80;;
25980;SDS011;13772;52.996;9.124;2022-07-10T18:39:31;2.88;;;0.68;;
25980;SDS011;13772;52.996;9.124;2022-07-10T18:41:56;3.35;;;0.65;;
25980;SDS011;13772;52.996;9.124;2022-07-10T18:44:22;4.60;;;0.70;;
25980;SDS011;13772;52.996;9.124;2022-07-10T18:46:47;3.03;;;0.70;;
25980;SDS011;13772;52.996;9.124;2022-07-10T18:49:12;4.38;;;0.73;;
25980;SDS011;13772;52.996;9.124;2022-07-10T18:51:38;2.72;;;0.45;;
25980;SDS011;13772;52.996;9.124;2022-07-10T18:54:03;5.57;;;0.60;;
25980;SDS011;13772;52.996;9.124;2022-07-10T18:56:29;3.08;;;0.55;;
25980;SDS011;13772;52.996;9.124;2022-07-10T18:58:54;2.17;;;0.50;;
25980;SDS011;13772;52.996;9.124;2022-07-10T19:01:20;4.22;;;0.50;;
25980;SDS011;13772;52.996;9.124;2022-07-10T19:03:45;2.55;;;0.45;;
25980;SDS011;13772;52.996;9.124;2022-07-10T19:06:11;7.22;;;0.50;;
25980;SDS011;13772;52.996;9.124;2022-07-10T19:08:37;1.90;;;0.40;;
25980;SDS011;13772;52.996;9.124;2022-07-10T19:11:02;2.55;;;0.47;;
25980;SDS011;13772;52.996;9.124;2022-07-10T19:13:27;2.92;;;0.40;;
25980;SDS011;13772;52.996;9.124;2022-07-10T19:15:53;4.43;;;0.45;;
25980;SDS011;13772;52.996;9.124;2022-07-10T19:18:18;2.20;;;0.40;;
25980;SDS011;13772;52.996;9.124;2022-07-10T19:20:44;2.72;;;0.40;;
25980;SDS011;13772;52.996;9.124;2022-07-10T19:23:09;2.38;;;0.70;;
25980;SDS011;13772;52.996;9.124;2022-07-10T19:25:34;2.78;;;0.30;;
25980;SDS011;13772;52.996;9.124;2022-07-10T19:28:02;3.08;;;0.50;;
25980;SDS011;13772;52.996;9.124;2022-07-10T19:30:31;3.03;;;0.40;;
25980;SDS011;13772;52.996;9.124;2022-07-10T19:32:57;8.30;;;1.13;;
25980;SDS011;13772;52.996;9.124;2022-07-10T19:35:22;2.75;;;0.40;;
25980;SDS011;13772;52.996;9.124;2022-07-10T19:37:47;3.45;;;0.43;;
25980;SDS011;13772;52.996;9.124;2022-07-10T19:40:13;2.65;;;0.60;;
25980;SDS011;13772;52.996;9.124;2022-07-10T19:42:39;3.30;;;0.45;;
25980;SDS011;13772;52.996;9.124;2022-07-10T19:45:04;5.82;;;1.00;;
25980;SDS011;13772;52.996;9.124;2022-07-10T19:47:30;2.20;;;0.40;;
25980;SDS011;13772;52.996;9.124;2022-07-10T19:49:55;4.72;;;0.60;;
25980;SDS011;13772;52.996;9.124;2022-07-10T19:52:21;4.03;;;0.47;;
25980;SDS011;13772;52.996;9.124;2022-07-10T19:54:46;3.42;;;0.55;;
25980;SDS011;13772;52.996;9.124;2022-07-10T19:57:12;3.45;;;0.57;;
25980;SDS011;13772;52.996;9.124;2022-07-10T19:59:37;3.45;;;0.50;;
25980;SDS011;13772;52.996;9.124;2022-07-10T20:02:02;3.50;;;0.65;;
25980;SDS011;13772;52.996;9.124;2022-07-10T20:04:29;1.48;;;0.43;;
25980;SDS011;13772;52.996;9.124;2022-07-10T20:06:55;2.88;;;0.68;;
25980;SDS011;13772;52.996;9.124;2022-07-10T20:09:20;1.80;;;0.60;;
25980;SDS011;13772;52.996;9.124;2022-07-10T20:11:45;3.65;;;0.52;;
25980;SDS011;13772;52.996;9.124;2022-07-10T20:14:10;3.15;;;0.77;;
25980;SDS011;13772;52.996;9.124;2022-07-10T20:16:36;5.07;;;0.95;;
25980;SDS011;13772;52.996;9.124;2022-07-10T20:19:01;2.03;;;0.50;;
25980;SDS011;13772;52.996;9.124;2022-07-10T20:21:26;3.38;;;0.55;;
25980;SDS011;13772;52.996;9.124;2022-07-10T20:23:52;1.60;;;0.70;;
25980;SDS011;13772;52.996;9.124;2022-07-10T20:26:17;1.67;;;0.60;;
25980;SDS011;13772;52.996;9.124;2022-07-10T20:28:42;3.05;;;0.50;;
25980;SDS011;13772;52.996;9.124;2022-07-10T20:31:07;1.92;;;0.40;;
25980;SDS011;13772;52.996;9.124;2022-07-10T20:33:35;4.63;;;0.63;;
25980;SDS011;13772;52.996;9.124;2022-07-10T20:36:00;6.25;;;0.60;;
25980;SDS011;13772;52.996;9.124;2022-07-10T20:38:44;1.95;;;0.55;;
25980;SDS011;13772;52.996;9.124;2022-07-10T20:41:09;3.38;;;0.50;;
25980;SDS011;13772;52.996;9.124;2022-07-10T20:43:35;1.35;;;0.57;;
25980;SDS011;13772;52.996;9.124;2022-07-10T20:46:01;2.40;;;0.40;;
25980;SDS011;13772;52.996;9.124;2022-07-10T20:48:27;2.67;;;0.60;;
25980;SDS011;13772;52.996;9.124;2022-07-10T20:50:53;2.63;;;0.65;;
25980;SDS011;13772;52.996;9.124;2022-07-10T20:53:18;3.60;;;0.73;;
25980;SDS011;13772;52.996;9.124;2022-07-10T20:55:43;1.98;;;0.55;;
25980;SDS011;13772;52.996;9.124;2022-07-10T20:58:08;4.10;;;1.10;;
25980;SDS011;13772;52.996;9.124;2022-07-10T21:00:34;2.75;;;0.70;;
25980;SDS011;13772;52.996;9.124;2022-07-10T21:02:59;4.40;;;0.90;;
25980;SDS011;13772;52.996;9.124;2022-07-10T21:05:24;3.58;;;0.98;;
25980;SDS011;13772;52.996;9.124;2022-07-10T21:07:53;2.67;;;0.87;;
25980;SDS011;13772;52.996;9.124;2022-07-10T21:10:18;2.90;;;0.85;;
25980;SDS011;13772;52.996;9.124;2022-07-10T21:13:04;4.25;;;1.08;;
25980;SDS011;13772;52.996;9.124;2022-07-10T21:15:29;2.75;;;1.00;;
25980;SDS011;13772;52.996;9.124;2022-07-10T21:17:55;1.80;;;0.85;;
25980;SDS011;13772;52.996;9.124;2022-07-10T21:20:21;1.58;;;0.65;;
25980;SDS011;13772;52.996;9.124;2022-07-10T21:22:46;2.22;;;0.80;;
25980;SDS011;13772;52.996;9.124;2022-07-10T21:25:12;2.78;;;0.80;;
25980;SDS011;13772;52.996;9.124;2022-07-10T21:27:37;3.03;;;0.88;;
25980;SDS011;13772;52.996;9.124;2022-07-10T21:30:02;3.45;;;1.08;;
25980;SDS011;13772;52.996;9.124;2022-07-10T21:32:28;4.40;;;1.13;;
25980;SDS011;13772;52.996;9.124;2022-07-10T21:34:53;4.88;;;1.30;;
25980;SDS011;13772;52.996;9.124;2022-07-10T21:37:18;2.55;;;1.17;;
25980;SDS011;13772;52.996;9.124;2022-07-10T21:39:46;2.63;;;1.10;;
25980;SDS011;13772;52.996;9.124;2022-07-10T21:42:11;2.97;;;1.10;;
25980;SDS011;13772;52.996;9.124;2022-07-10T21:44:36;2.10;;;1.02;;
25980;SDS011;13772;52.996;9.124;2022-07-10T21:47:01;3.50;;;0.93;;
25980;SDS011;13772;52.996;9.124;2022-07-10T21:49:27;6.60;;;1.40;;
25980;SDS011;13772;52.996;9.124;2022-07-10T21:51:52;3.95;;;1.23;;
